Terminal Aerodrome Forecast
Issued by NWS

Home | Current Version | Previous Version | Graphics & Text | Print | Product List | Glossary On
Versions: 1 2 3 4 5 6 7 8 9 10 11 12 13 14
523
FTUS43 KFGF 200520
TAFBJI
TAF
KBJI 200520Z 2006/2106 17006KT P6SM FEW250
     FM201400 15010KT P6SM FEW250
     FM201800 16015G23KT P6SM FEW250
     FM210500 17013G24KT P6SM BKN090=

USA.gov is the U.S. government's official web portal to all federal, state and local government web resources and services.